sensor_id;sensor_type;location;lat;lon;timestamp;P1;durP1;ratioP1;P2;durP2;ratioP2
3293;SDS011;1659;51.470;6.770;2024-03-23T00:54:36;5.13;;;3.80;;
3293;SDS011;1659;51.470;6.770;2024-03-23T00:57:02;21.20;;;3.60;;
3293;SDS011;1659;51.470;6.770;2024-03-23T00:59:34;11.13;;;3.90;;
3293;SDS011;1659;51.470;6.770;2024-03-23T01:02:00;9.33;;;4.67;;
3293;SDS011;1659;51.470;6.770;2024-03-23T01:04:34;10.70;;;4.23;;
3293;SDS011;1659;51.470;6.770;2024-03-23T01:06:59;18.73;;;4.97;;
3293;SDS011;1659;51.470;6.770;2024-03-23T01:09:28;10.83;;;4.60;;
3293;SDS011;1659;51.470;6.770;2024-03-23T01:11:55;12.53;;;4.63;;
3293;SDS011;1659;51.470;6.770;2024-03-23T01:14:21;7.87;;;4.70;;
3293;SDS011;1659;51.470;6.770;2024-03-23T01:16:49;7.57;;;3.60;;
3293;SDS011;1659;51.470;6.770;2024-03-23T01:19:16;10.37;;;3.90;;
3293;SDS011;1659;51.470;6.770;2024-03-23T01:22:23;12.53;;;3.70;;
3293;SDS011;1659;51.470;6.770;2024-03-23T01:24:46;13.57;;;3.93;;
3293;SDS011;1659;51.470;6.770;2024-03-23T01:27:13;8.93;;;4.27;;
3293;SDS011;1659;51.470;6.770;2024-03-23T01:29:40;7.17;;;3.60;;
3293;SDS011;1659;51.470;6.770;2024-03-23T01:32:06;8.53;;;4.30;;
3293;SDS011;1659;51.470;6.770;2024-03-23T01:34:33;9.97;;;4.10;;
3293;SDS011;1659;51.470;6.770;2024-03-23T01:36:58;14.73;;;4.00;;
3293;SDS011;1659;51.470;6.770;2024-03-23T01:39:32;17.93;;;4.70;;
3293;SDS011;1659;51.470;6.770;2024-03-23T01:41:57;6.10;;;3.57;;
3293;SDS011;1659;51.470;6.770;2024-03-23T01:44:25;22.17;;;4.60;;
3293;SDS011;1659;51.470;6.770;2024-03-23T01:46:51;23.30;;;4.60;;
3293;SDS011;1659;51.470;6.770;2024-03-23T01:49:20;7.03;;;3.47;;
3293;SDS011;1659;51.470;6.770;2024-03-23T01:51:46;10.20;;;4.27;;
3293;SDS011;1659;51.470;6.770;2024-03-23T01:54:12;11.37;;;4.87;;
3293;SDS011;1659;51.470;6.770;2024-03-23T02:02:18;7.17;;;4.17;;
3293;SDS011;1659;51.470;6.770;2024-03-23T02:04:45;13.23;;;4.80;;
3293;SDS011;1659;51.470;6.770;2024-03-23T02:07:10;14.53;;;5.80;;
3293;SDS011;1659;51.470;6.770;2024-03-23T02:09:37;12.33;;;4.40;;
3293;SDS011;1659;51.470;6.770;2024-03-23T02:12:03;12.83;;;4.13;;
3293;SDS011;1659;51.470;6.770;2024-03-23T02:14:30;16.57;;;4.87;;
3293;SDS011;1659;51.470;6.770;2024-03-23T02:16:58;18.83;;;5.63;;
3293;SDS011;1659;51.470;6.770;2024-03-23T02:19:25;15.67;;;5.37;;
3293;SDS011;1659;51.470;6.770;2024-03-23T02:21:50;12.47;;;4.50;;
3293;SDS011;1659;51.470;6.770;2024-03-23T02:24:18;14.07;;;5.37;;
3293;SDS011;1659;51.470;6.770;2024-03-23T02:26:44;9.00;;;4.23;;
3293;SDS011;1659;51.470;6.770;2024-03-23T02:29:13;8.70;;;4.97;;
3293;SDS011;1659;51.470;6.770;2024-03-23T02:31:39;14.80;;;4.90;;
3293;SDS011;1659;51.470;6.770;2024-03-23T02:34:05;7.17;;;3.80;;
3293;SDS011;1659;51.470;6.770;2024-03-23T02:36:31;16.90;;;4.93;;
3293;SDS011;1659;51.470;6.770;2024-03-23T02:38:57;8.40;;;4.30;;
3293;SDS011;1659;51.470;6.770;2024-03-23T02:41:24;12.50;;;4.47;;
3293;SDS011;1659;51.470;6.770;2024-03-23T02:43:51;14.63;;;5.40;;
3293;SDS011;1659;51.470;6.770;2024-03-23T02:46:16;12.87;;;5.23;;
3293;SDS011;1659;51.470;6.770;2024-03-23T02:48:43;14.77;;;4.30;;
3293;SDS011;1659;51.470;6.770;2024-03-23T02:51:10;12.83;;;3.97;;
3293;SDS011;1659;51.470;6.770;2024-03-23T02:53:35;8.17;;;3.93;;
3293;SDS011;1659;51.470;6.770;2024-03-23T02:56:02;9.03;;;4.10;;
3293;SDS011;1659;51.470;6.770;2024-03-23T02:58:29;17.83;;;3.90;;
3293;SDS011;1659;51.470;6.770;2024-03-23T03:00:56;8.30;;;3.30;;
3293;SDS011;1659;51.470;6.770;2024-03-23T03:03:21;12.47;;;3.13;;
3293;SDS011;1659;51.470;6.770;2024-03-23T03:05:48;9.20;;;3.73;;
3293;SDS011;1659;51.470;6.770;2024-03-23T03:08:19;12.40;;;3.20;;
3293;SDS011;1659;51.470;6.770;2024-03-23T03:10:46;7.10;;;3.83;;
3293;SDS011;1659;51.470;6.770;2024-03-23T03:13:11;9.53;;;3.20;;
3293;SDS011;1659;51.470;6.770;2024-03-23T03:15:40;5.83;;;2.73;;
3293;SDS011;1659;51.470;6.770;2024-03-23T03:18:06;4.30;;;2.93;;
3293;SDS011;1659;51.470;6.770;2024-03-23T03:20:33;13.33;;;3.63;;
3293;SDS011;1659;51.470;6.770;2024-03-23T03:22:59;9.17;;;3.20;;
3293;SDS011;1659;51.470;6.770;2024-03-23T03:25:26;8.53;;;4.00;;
3293;SDS011;1659;51.470;6.770;2024-03-23T03:27:51;4.97;;;3.43;;
3293;SDS011;1659;51.470;6.770;2024-03-23T03:30:18;11.00;;;3.17;;
3293;SDS011;1659;51.470;6.770;2024-03-23T03:32:45;10.00;;;3.80;;
3293;SDS011;1659;51.470;6.770;2024-03-23T03:35:12;7.20;;;3.57;;
3293;SDS011;1659;51.470;6.770;2024-03-23T03:37:37;10.13;;;3.70;;
3293;SDS011;1659;51.470;6.770;2024-03-23T03:40:04;5.63;;;3.40;;
3293;SDS011;1659;51.470;6.770;2024-03-23T03:42:33;13.03;;;3.23;;
3293;SDS011;1659;51.470;6.770;2024-03-23T03:45:00;10.63;;;3.50;;
3293;SDS011;1659;51.470;6.770;2024-03-23T03:47:26;8.50;;;4.00;;
3293;SDS011;1659;51.470;6.770;2024-03-23T03:49:54;9.20;;;4.67;;
3293;SDS011;1659;51.470;6.770;2024-03-23T03:52:19;12.90;;;4.57;;
3293;SDS011;1659;51.470;6.770;2024-03-23T03:54:46;6.53;;;4.20;;
3293;SDS011;1659;51.470;6.770;2024-03-23T03:57:11;10.43;;;3.90;;
3293;SDS011;1659;51.470;6.770;2024-03-23T03:59:38;10.33;;;5.00;;
3293;SDS011;1659;51.470;6.770;2024-03-23T04:02:03;16.10;;;4.37;;
3293;SDS011;1659;51.470;6.770;2024-03-23T04:04:30;7.87;;;4.33;;
3293;SDS011;1659;51.470;6.770;2024-03-23T04:06:59;18.20;;;7.67;;
3293;SDS011;1659;51.470;6.770;2024-03-23T04:09:26;17.50;;;7.10;;
3293;SDS011;1659;51.470;6.770;2024-03-23T04:11:51;14.60;;;6.73;;
3293;SDS011;1659;51.470;6.770;2024-03-23T04:14:18;11.50;;;5.13;;
3293;SDS011;1659;51.470;6.770;2024-03-23T04:16:43;15.13;;;4.77;;
3293;SDS011;1659;51.470;6.770;2024-03-23T04:19:10;10.43;;;4.80;;
3293;SDS011;1659;51.470;6.770;2024-03-23T04:21:35;10.67;;;6.10;;
3293;SDS011;1659;51.470;6.770;2024-03-23T04:24:03;14.80;;;6.30;;
3293;SDS011;1659;51.470;6.770;2024-03-23T04:26:30;10.87;;;4.60;;
3293;SDS011;1659;51.470;6.770;2024-03-23T04:28:56;22.77;;;5.90;;
3293;SDS011;1659;51.470;6.770;2024-03-23T04:31:22;15.40;;;4.40;;
3293;SDS011;1659;51.470;6.770;2024-03-23T04:33:48;21.17;;;4.90;;
3293;SDS011;1659;51.470;6.770;2024-03-23T04:36:14;16.77;;;5.63;;
3293;SDS011;1659;51.470;6.770;2024-03-23T04:38:40;12.13;;;6.47;;
3293;SDS011;1659;51.470;6.770;2024-03-23T04:41:08;15.77;;;6.43;;
3293;SDS011;1659;51.470;6.770;2024-03-23T04:43:35;29.87;;;7.07;;
3293;SDS011;1659;51.470;6.770;2024-03-23T04:46:01;14.80;;;6.60;;
3293;SDS011;1659;51.470;6.770;2024-03-23T04:48:28;12.60;;;6.30;;
3293;SDS011;1659;51.470;6.770;2024-03-23T04:50:55;12.17;;;6.23;;
3293;SDS011;1659;51.470;6.770;2024-03-23T04:53:23;17.20;;;7.07;;
3293;SDS011;1659;51.470;6.770;2024-03-23T04:55:53;14.40;;;7.87;;
3293;SDS011;1659;51.470;6.770;2024-03-23T04:58:21;19.10;;;7.17;;
3293;SDS011;1659;51.470;6.770;2024-03-23T05:00:46;12.67;;;7.80;;
3293;SDS011;1659;51.470;6.770;2024-03-23T05:03:13;15.43;;;7.80;;
3293;SDS011;1659;51.470;6.770;2024-03-23T05:05:38;71.93;;;28.73;;
3293;SDS011;1659;51.470;6.770;2024-03-23T05:08:06;56.90;;;23.70;;
3293;SDS011;1659;51.470;6.770;2024-03-23T05:10:32;29.00;;;13.73;;
3293;SDS011;1659;51.470;6.770;2024-03-23T05:12:59;20.93;;;8.83;;
3293;SDS011;1659;51.470;6.770;2024-03-23T05:15:26;18.87;;;7.03;;
3293;SDS011;1659;51.470;6.770;2024-03-23T05:17:52;14.03;;;6.00;;
3293;SDS011;1659;51.470;6.770;2024-03-23T05:20:19;22.00;;;7.00;;
3293;SDS011;1659;51.470;6.770;2024-03-23T05:22:45;15.80;;;5.80;;
3293;SDS011;1659;51.470;6.770;2024-03-23T05:25:11;15.50;;;6.13;;
3293;SDS011;1659;51.470;6.770;2024-03-23T05:27:38;16.60;;;7.57;;
3293;SDS011;1659;51.470;6.770;2024-03-23T05:30:04;18.40;;;5.70;;
3293;SDS011;1659;51.470;6.770;2024-03-23T05:32:33;19.33;;;6.07;;
3293;SDS011;1659;51.470;6.770;2024-03-23T05:34:58;13.10;;;6.17;;
3293;SDS011;1659;51.470;6.770;2024-03-23T05:37:25;14.73;;;6.73;;
3293;SDS011;1659;51.470;6.770;2024-03-23T05:39:51;12.90;;;5.67;;
3293;SDS011;1659;51.470;6.770;2024-03-23T05:42:17;12.83;;;7.57;;
3293;SDS011;1659;51.470;6.770;2024-03-23T05:44:43;12.63;;;6.30;;
3293;SDS011;1659;51.470;6.770;2024-03-23T05:47:11;12.13;;;5.83;;
3293;SDS011;1659;51.470;6.770;2024-03-23T05:49:39;18.47;;;8.20;;
3293;SDS011;1659;51.470;6.770;2024-03-23T05:52:06;20.77;;;6.70;;
3293;SDS011;1659;51.470;6.770;2024-03-23T05:54:32;15.80;;;6.37;;
3293;SDS011;1659;51.470;6.770;2024-03-23T05:56:59;19.83;;;6.90;;
3293;SDS011;1659;51.470;6.770;2024-03-23T05:59:24;18.67;;;5.93;;
3293;SDS011;1659;51.470;6.770;2024-03-23T06:01:52;19.63;;;8.20;;
3293;SDS011;1659;51.470;6.770;2024-03-23T06:04:17;24.37;;;11.63;;
3293;SDS011;1659;51.470;6.770;2024-03-23T06:06:45;19.83;;;8.20;;
3293;SDS011;1659;51.470;6.770;2024-03-23T06:09:11;18.33;;;6.73;;
3293;SDS011;1659;51.470;6.770;2024-03-23T06:11:37;17.00;;;7.83;;
3293;SDS011;1659;51.470;6.770;2024-03-23T06:14:03;14.70;;;6.50;;
3293;SDS011;1659;51.470;6.770;2024-03-23T06:16:30;19.93;;;7.13;;
3293;SDS011;1659;51.470;6.770;2024-03-23T06:18:55;19.80;;;7.63;;
3293;SDS011;1659;51.470;6.770;2024-03-23T06:21:23;18.87;;;7.03;;
3293;SDS011;1659;51.470;6.770;2024-03-23T06:23:52;19.80;;;6.90;;
3293;SDS011;1659;51.470;6.770;2024-03-23T06:26:18;21.67;;;7.47;;
3293;SDS011;1659;51.470;6.770;2024-03-23T06:28:44;14.27;;;7.40;;
3293;SDS011;1659;51.470;6.770;2024-03-23T06:31:11;17.63;;;7.40;;
3293;SDS011;1659;51.470;6.770;2024-03-23T06:33:37;18.83;;;7.80;;
3293;SDS011;1659;51.470;6.770;2024-03-23T06:36:04;16.60;;;8.53;;
3293;SDS011;1659;51.470;6.770;2024-03-23T06:38:30;24.73;;;8.53;;
3293;SDS011;1659;51.470;6.770;2024-03-23T06:40:58;27.20;;;8.50;;
3293;SDS011;1659;51.470;6.770;2024-03-23T06:43:24;30.23;;;9.30;;
3293;SDS011;1659;51.470;6.770;2024-03-23T06:45:53;17.43;;;8.07;;
3293;SDS011;1659;51.470;6.770;2024-03-23T06:48:20;14.80;;;7.00;;
3293;SDS011;1659;51.470;6.770;2024-03-23T06:50:46;19.17;;;9.23;;
3293;SDS011;1659;51.470;6.770;2024-03-23T06:53:12;18.97;;;8.70;;
3293;SDS011;1659;51.470;6.770;2024-03-23T06:55:39;29.17;;;10.97;;
3293;SDS011;1659;51.470;6.770;2024-03-23T06:58:07;28.13;;;11.50;;
3293;SDS011;1659;51.470;6.770;2024-03-23T07:00:35;18.27;;;9.50;;
3293;SDS011;1659;51.470;6.770;2024-03-23T07:03:00;20.70;;;10.63;;
3293;SDS011;1659;51.470;6.770;2024-03-23T07:05:29;16.93;;;9.00;;
3293;SDS011;1659;51.470;6.770;2024-03-23T07:07:54;22.90;;;9.00;;
3293;SDS011;1659;51.470;6.770;2024-03-23T07:10:21;20.77;;;9.97;;
3293;SDS011;1659;51.470;6.770;2024-03-23T07:12:46;17.43;;;9.03;;
3293;SDS011;1659;51.470;6.770;2024-03-23T07:15:14;20.40;;;8.37;;
3293;SDS011;1659;51.470;6.770;2024-03-23T07:17:41;17.40;;;8.20;;
3293;SDS011;1659;51.470;6.770;2024-03-23T07:20:08;21.03;;;8.47;;
3293;SDS011;1659;51.470;6.770;2024-03-23T07:22:35;16.37;;;8.13;;
3293;SDS011;1659;51.470;6.770;2024-03-23T07:25:02;21.67;;;8.00;;
3293;SDS011;1659;51.470;6.770;2024-03-23T07:27:28;14.63;;;7.97;;
3293;SDS011;1659;51.470;6.770;2024-03-23T07:29:54;17.83;;;8.27;;
3293;SDS011;1659;51.470;6.770;2024-03-23T07:32:21;19.80;;;8.93;;
3293;SDS011;1659;51.470;6.770;2024-03-23T07:34:48;15.83;;;7.30;;
3293;SDS011;1659;51.470;6.770;2024-03-23T07:37:14;16.70;;;8.10;;
3293;SDS011;1659;51.470;6.770;2024-03-23T07:39:40;12.87;;;7.30;;
3293;SDS011;1659;51.470;6.770;2024-03-23T07:42:06;16.50;;;7.23;;
3293;SDS011;1659;51.470;6.770;2024-03-23T07:44:33;15.80;;;6.67;;
3293;SDS011;1659;51.470;6.770;2024-03-23T07:46:58;16.87;;;6.97;;
3293;SDS011;1659;51.470;6.770;2024-03-23T07:49:27;22.13;;;8.17;;
3293;SDS011;1659;51.470;6.770;2024-03-23T07:51:53;18.73;;;6.70;;
3293;SDS011;1659;51.470;6.770;2024-03-23T07:54:19;14.13;;;6.40;;
3293;SDS011;1659;51.470;6.770;2024-03-23T07:56:45;12.67;;;6.13;;
3293;SDS011;1659;51.470;6.770;2024-03-23T07:59:11;10.33;;;6.30;;
3293;SDS011;1659;51.470;6.770;2024-03-23T08:01:37;30.23;;;6.63;;
3293;SDS011;1659;51.470;6.770;2024-03-23T08:04:03;18.93;;;7.33;;
3293;SDS011;1659;51.470;6.770;2024-03-23T08:06:30;20.93;;;7.40;;
3293;SDS011;1659;51.470;6.770;2024-03-23T08:08:57;19.03;;;6.77;;
3293;SDS011;1659;51.470;6.770;2024-03-23T08:11:24;17.30;;;5.60;;
3293;SDS011;1659;51.470;6.770;2024-03-23T08:13:51;17.50;;;5.53;;
3293;SDS011;1659;51.470;6.770;2024-03-23T08:16:17;18.67;;;5.50;;
3293;SDS011;1659;51.470;6.770;2024-03-23T08:18:43;12.30;;;6.30;;
3293;SDS011;1659;51.470;6.770;2024-03-23T08:21:09;16.80;;;6.23;;
3293;SDS011;1659;51.470;6.770;2024-03-23T08:23:37;16.20;;;5.73;;
3293;SDS011;1659;51.470;6.770;2024-03-23T08:26:03;11.20;;;5.60;;
3293;SDS011;1659;51.470;6.770;2024-03-23T08:28:31;15.53;;;5.60;;
3293;SDS011;1659;51.470;6.770;2024-03-23T08:30:57;15.90;;;5.60;;
3293;SDS011;1659;51.470;6.770;2024-03-23T08:33:26;8.43;;;5.60;;
3293;SDS011;1659;51.470;6.770;2024-03-23T08:35:53;13.73;;;5.23;;
3293;SDS011;1659;51.470;6.770;2024-03-23T08:38:20;11.57;;;4.43;;
3293;SDS011;1659;51.470;6.770;2024-03-23T08:40:47;8.43;;;4.47;;
3293;SDS011;1659;51.470;6.770;2024-03-23T08:43:14;13.37;;;4.57;;
3293;SDS011;1659;51.470;6.770;2024-03-23T08:45:39;8.90;;;3.80;;
3293;SDS011;1659;51.470;6.770;2024-03-23T08:48:06;9.53;;;3.57;;
3293;SDS011;1659;51.470;6.770;2024-03-23T08:50:32;11.07;;;4.30;;
3293;SDS011;1659;51.470;6.770;2024-03-23T08:52:58;12.33;;;5.30;;
3293;SDS011;1659;51.470;6.770;2024-03-23T08:55:24;8.17;;;3.40;;
3293;SDS011;1659;51.470;6.770;2024-03-23T08:57:52;7.97;;;3.50;;
3293;SDS011;1659;51.470;6.770;2024-03-23T09:00:17;9.20;;;2.93;;
3293;SDS011;1659;51.470;6.770;2024-03-23T09:02:47;9.47;;;3.83;;
3293;SDS011;1659;51.470;6.770;2024-03-23T09:05:12;5.53;;;2.93;;
3293;SDS011;1659;51.470;6.770;2024-03-23T09:07:39;9.30;;;3.17;;
3293;SDS011;1659;51.470;6.770;2024-03-23T09:10:05;3.57;;;3.20;;
3293;SDS011;1659;51.470;6.770;2024-03-23T09:12:33;5.60;;;3.60;;
3293;SDS011;1659;51.470;6.770;2024-03-23T09:15:00;9.93;;;4.60;;
3293;SDS011;1659;51.470;6.770;2024-03-23T09:17:26;12.03;;;4.00;;
3293;SDS011;1659;51.470;6.770;2024-03-23T09:19:52;9.20;;;4.30;;
3293;SDS011;1659;51.470;6.770;2024-03-23T09:22:19;6.33;;;3.93;;
3293;SDS011;1659;51.470;6.770;2024-03-23T09:24:44;12.20;;;5.83;;
3293;SDS011;1659;51.470;6.770;2024-03-23T09:27:11;13.40;;;5.50;;
3293;SDS011;1659;51.470;6.770;2024-03-23T09:29:36;11.30;;;5.20;;
3293;SDS011;1659;51.470;6.770;2024-03-23T09:32:05;12.77;;;4.63;;
3293;SDS011;1659;51.470;6.770;2024-03-23T09:34:30;12.10;;;6.17;;
3293;SDS011;1659;51.470;6.770;2024-03-23T09:36:57;8.90;;;4.57;;
3293;SDS011;1659;51.470;6.770;2024-03-23T09:39:23;9.20;;;5.63;;
3293;SDS011;1659;51.470;6.770;2024-03-23T09:41:49;17.23;;;5.90;;
3293;SDS011;1659;51.470;6.770;2024-03-23T09:44:15;11.80;;;5.40;;
3293;SDS011;1659;51.470;6.770;2024-03-23T09:46:42;6.00;;;4.90;;
3293;SDS011;1659;51.470;6.770;2024-03-23T09:49:09;6.57;;;3.90;;
3293;SDS011;1659;51.470;6.770;2024-03-23T09:51:36;17.90;;;5.83;;
3293;SDS011;1659;51.470;6.770;2024-03-23T09:54:02;12.17;;;3.90;;
3293;SDS011;1659;51.470;6.770;2024-03-23T09:56:28;11.73;;;3.87;;
3293;SDS011;1659;51.470;6.770;2024-03-23T09:58:59;20.30;;;8.97;;
3293;SDS011;1659;51.470;6.770;2024-03-23T10:01:26;10.10;;;4.60;;
3293;SDS011;1659;51.470;6.770;2024-03-23T10:03:52;4.73;;;2.90;;
3293;SDS011;1659;51.470;6.770;2024-03-23T10:06:22;5.40;;;3.07;;
3293;SDS011;1659;51.470;6.770;2024-03-23T10:08:49;9.70;;;3.53;;
3293;SDS011;1659;51.470;6.770;2024-03-23T10:11:16;8.10;;;2.77;;
3293;SDS011;1659;51.470;6.770;2024-03-23T10:13:43;7.17;;;2.50;;
3293;SDS011;1659;51.470;6.770;2024-03-23T10:16:11;4.50;;;2.63;;
3293;SDS011;1659;51.470;6.770;2024-03-23T10:18:37;5.90;;;3.07;;
3293;SDS011;1659;51.470;6.770;2024-03-23T10:21:08;5.23;;;2.53;;
3293;SDS011;1659;51.470;6.770;2024-03-23T10:23:36;9.60;;;2.80;;
3293;SDS011;1659;51.470;6.770;2024-03-23T10:26:12;7.50;;;3.20;;
3293;SDS011;1659;51.470;6.770;2024-03-23T10:28:47;12.17;;;5.07;;
3293;SDS011;1659;51.470;6.770;2024-03-23T10:31:17;6.20;;;3.60;;
3293;SDS011;1659;51.470;6.770;2024-03-23T10:33:44;10.97;;;4.50;;
3293;SDS011;1659;51.470;6.770;2024-03-23T10:36:11;7.23;;;3.53;;
3293;SDS011;1659;51.470;6.770;2024-03-23T10:38:38;5.83;;;3.50;;
3293;SDS011;1659;51.470;6.770;2024-03-23T10:41:07;6.73;;;2.33;;
3293;SDS011;1659;51.470;6.770;2024-03-23T10:43:34;3.70;;;1.77;;
3293;SDS011;1659;51.470;6.770;2024-03-23T10:46:02;3.30;;;1.87;;
3293;SDS011;1659;51.470;6.770;2024-03-23T10:48:28;1.80;;;1.70;;
3293;SDS011;1659;51.470;6.770;2024-03-23T10:50:55;3.30;;;2.50;;
3293;SDS011;1659;51.470;6.770;2024-03-23T10:53:21;3.03;;;1.53;;
3293;SDS011;1659;51.470;6.770;2024-03-23T10:55:52;2.93;;;2.23;;
3293;SDS011;1659;51.470;6.770;2024-03-23T10:58:20;4.30;;;1.60;;
3293;SDS011;1659;51.470;6.770;2024-03-23T11:00:50;4.70;;;2.10;;
3293;SDS011;1659;51.470;6.770;2024-03-23T11:06:01;7.03;;;4.13;;
3293;SDS011;1659;51.470;6.770;2024-03-23T11:08:32;6.03;;;2.60;;
3293;SDS011;1659;51.470;6.770;2024-03-23T11:11:18;5.80;;;3.93;;
3293;SDS011;1659;51.470;6.770;2024-03-23T11:13:44;7.43;;;2.77;;
3293;SDS011;1659;51.470;6.770;2024-03-23T11:16:14;3.30;;;3.00;;
3293;SDS011;1659;51.470;6.770;2024-03-23T11:18:41;8.70;;;2.20;;
3293;SDS011;1659;51.470;6.770;2024-03-23T11:21:08;22.30;;;7.30;;
3293;SDS011;1659;51.470;6.770;2024-03-23T11:23:34;20.93;;;9.70;;
3293;SDS011;1659;51.470;6.770;2024-03-23T11:26:01;25.30;;;10.90;;
3293;SDS011;1659;51.470;6.770;2024-03-23T11:28:28;9.30;;;3.97;;
3293;SDS011;1659;51.470;6.770;2024-03-23T11:30:54;8.33;;;3.00;;
3293;SDS011;1659;51.470;6.770;2024-03-23T11:33:20;6.10;;;3.70;;
3293;SDS011;1659;51.470;6.770;2024-03-23T11:35:46;5.40;;;3.50;;
3293;SDS011;1659;51.470;6.770;2024-03-23T11:38:12;4.67;;;4.00;;
3293;SDS011;1659;51.470;6.770;2024-03-23T11:40:40;3.57;;;3.27;;
3293;SDS011;1659;51.470;6.770;2024-03-23T11:43:06;8.57;;;3.40;;
3293;SDS011;1659;51.470;6.770;2024-03-23T11:45:37;3.77;;;3.17;;
3293;SDS011;1659;51.470;6.770;2024-03-23T11:48:05;3.70;;;2.70;;
3293;SDS011;1659;51.470;6.770;2024-03-23T11:50:33;3.93;;;2.70;;
3293;SDS011;1659;51.470;6.770;2024-03-23T11:53:13;4.33;;;1.97;;
3293;SDS011;1659;51.470;6.770;2024-03-23T11:55:45;2.43;;;1.73;;
3293;SDS011;1659;51.470;6.770;2024-03-23T11:58:11;5.13;;;2.43;;
3293;SDS011;1659;51.470;6.770;2024-03-23T12:00:40;2.10;;;1.40;;
3293;SDS011;1659;51.470;6.770;2024-03-23T12:03:06;2.50;;;1.80;;
3293;SDS011;1659;51.470;6.770;2024-03-23T12:05:33;3.90;;;1.80;;
3293;SDS011;1659;51.470;6.770;2024-03-23T12:08:18;9.40;;;2.40;;
3293;SDS011;1659;51.470;6.770;2024-03-23T12:10:47;3.80;;;2.83;;
3293;SDS011;1659;51.470;6.770;2024-03-23T12:13:14;9.70;;;2.43;;
3293;SDS011;1659;51.470;6.770;2024-03-23T12:15:49;8.97;;;2.13;;
3293;SDS011;1659;51.470;6.770;2024-03-23T12:18:15;2.77;;;2.27;;
3293;SDS011;1659;51.470;6.770;2024-03-23T12:20:42;3.87;;;1.73;;
3293;SDS011;1659;51.470;6.770;2024-03-23T12:23:08;3.13;;;1.43;;
3293;SDS011;1659;51.470;6.770;2024-03-23T12:25:36;5.13;;;1.70;;
3293;SDS011;1659;51.470;6.770;2024-03-23T12:28:02;6.70;;;2.10;;
3293;SDS011;1659;51.470;6.770;2024-03-23T12:30:31;5.70;;;2.47;;
3293;SDS011;1659;51.470;6.770;2024-03-23T12:32:58;9.30;;;4.50;;
3293;SDS011;1659;51.470;6.770;2024-03-23T12:35:25;5.23;;;3.50;;
3293;SDS011;1659;51.470;6.770;2024-03-23T12:37:50;6.40;;;3.20;;
3293;SDS011;1659;51.470;6.770;2024-03-23T12:40:17;6.33;;;3.00;;
3293;SDS011;1659;51.470;6.770;2024-03-23T12:42:42;11.53;;;3.20;;
3293;SDS011;1659;51.470;6.770;2024-03-23T12:45:09;7.97;;;3.00;;
3293;SDS011;1659;51.470;6.770;2024-03-23T12:47:34;7.60;;;3.30;;
3293;SDS011;1659;51.470;6.770;2024-03-23T12:50:02;6.83;;;3.90;;
3293;SDS011;1659;51.470;6.770;2024-03-23T12:52:28;7.70;;;4.40;;
3293;SDS011;1659;51.470;6.770;2024-03-23T12:54:55;3.10;;;2.10;;
3293;SDS011;1659;51.470;6.770;2024-03-23T12:57:21;3.37;;;2.53;;
3293;SDS011;1659;51.470;6.770;2024-03-23T12:59:49;3.70;;;2.00;;
3293;SDS011;1659;51.470;6.770;2024-03-23T13:02:16;3.03;;;2.50;;
3293;SDS011;1659;51.470;6.770;2024-03-23T13:04:44;5.07;;;1.93;;
3293;SDS011;1659;51.470;6.770;2024-03-23T13:07:11;2.30;;;1.57;;
3293;SDS011;1659;51.470;6.770;2024-03-23T13:09:38;4.50;;;1.90;;
3293;SDS011;1659;51.470;6.770;2024-03-23T13:12:04;2.90;;;1.83;;
3293;SDS011;1659;51.470;6.770;2024-03-23T13:14:30;4.30;;;2.60;;
3293;SDS011;1659;51.470;6.770;2024-03-23T13:16:56;4.47;;;2.63;;
3293;SDS011;1659;51.470;6.770;2024-03-23T13:19:23;4.43;;;2.30;;
3293;SDS011;1659;51.470;6.770;2024-03-23T13:21:52;4.20;;;3.73;;
3293;SDS011;1659;51.470;6.770;2024-03-23T13:24:22;12.30;;;3.97;;
3293;SDS011;1659;51.470;6.770;2024-03-23T13:26:49;7.97;;;4.20;;
3293;SDS011;1659;51.470;6.770;2024-03-23T13:29:16;6.27;;;3.30;;
3293;SDS011;1659;51.470;6.770;2024-03-23T13:31:41;5.20;;;3.27;;
3293;SDS011;1659;51.470;6.770;2024-03-23T13:34:08;7.90;;;3.80;;
3293;SDS011;1659;51.470;6.770;2024-03-23T13:36:33;6.37;;;3.30;;
3293;SDS011;1659;51.470;6.770;2024-03-23T13:39:00;6.53;;;2.77;;
3293;SDS011;1659;51.470;6.770;2024-03-23T13:41:28;7.10;;;2.23;;
3293;SDS011;1659;51.470;6.770;2024-03-23T13:43:54;3.33;;;1.47;;
3293;SDS011;1659;51.470;6.770;2024-03-23T13:46:20;4.00;;;1.80;;
3293;SDS011;1659;51.470;6.770;2024-03-23T13:48:46;6.80;;;1.60;;
3293;SDS011;1659;51.470;6.770;2024-03-23T13:51:12;1.50;;;1.40;;
3293;SDS011;1659;51.470;6.770;2024-03-23T13:53:39;3.07;;;1.67;;
3293;SDS011;1659;51.470;6.770;2024-03-23T13:56:04;1.43;;;1.33;;
3293;SDS011;1659;51.470;6.770;2024-03-23T13:58:33;3.70;;;1.13;;
3293;SDS011;1659;51.470;6.770;2024-03-23T14:00:58;2.17;;;1.40;;
3293;SDS011;1659;51.470;6.770;2024-03-23T14:03:26;2.50;;;1.23;;
3293;SDS011;1659;51.470;6.770;2024-03-23T14:05:54;3.20;;;1.20;;
3293;SDS011;1659;51.470;6.770;2024-03-23T14:08:25;2.13;;;1.70;;
3293;SDS011;1659;51.470;6.770;2024-03-23T14:10:51;2.00;;;1.80;;
3293;SDS011;1659;51.470;6.770;2024-03-23T14:13:18;10.23;;;4.80;;
3293;SDS011;1659;51.470;6.770;2024-03-23T14:15:45;13.93;;;6.70;;
3293;SDS011;1659;51.470;6.770;2024-03-23T14:18:11;6.80;;;3.13;;
3293;SDS011;1659;51.470;6.770;2024-03-23T14:20:38;1.47;;;1.37;;
3293;SDS011;1659;51.470;6.770;2024-03-23T14:23:05;5.03;;;2.10;;
3293;SDS011;1659;51.470;6.770;2024-03-23T14:25:31;2.10;;;1.60;;
3293;SDS011;1659;51.470;6.770;2024-03-23T14:27:58;4.50;;;1.60;;
3293;SDS011;1659;51.470;6.770;2024-03-23T14:30:23;3.40;;;1.70;;
3293;SDS011;1659;51.470;6.770;2024-03-23T14:32:51;1.93;;;1.73;;
3293;SDS011;1659;51.470;6.770;2024-03-23T14:35:18;2.87;;;2.27;;
3293;SDS011;1659;51.470;6.770;2024-03-23T14:37:43;2.53;;;1.73;;
3293;SDS011;1659;51.470;6.770;2024-03-23T14:40:12;2.10;;;1.60;;
3293;SDS011;1659;51.470;6.770;2024-03-23T14:42:37;6.33;;;5.67;;
3293;SDS011;1659;51.470;6.770;2024-03-23T14:45:04;2.50;;;2.30;;
3293;SDS011;1659;51.470;6.770;2024-03-23T14:47:30;5.63;;;1.40;;
3293;SDS011;1659;51.470;6.770;2024-03-23T14:49:58;3.90;;;1.37;;
3293;SDS011;1659;51.470;6.770;2024-03-23T14:52:24;2.30;;;1.70;;
3293;SDS011;1659;51.470;6.770;2024-03-23T14:54:50;1.30;;;1.20;;
3293;SDS011;1659;51.470;6.770;2024-03-23T14:57:16;7.67;;;2.33;;
3293;SDS011;1659;51.470;6.770;2024-03-23T14:59:44;5.00;;;2.00;;
3293;SDS011;1659;51.470;6.770;2024-03-23T15:02:09;3.33;;;1.70;;
3293;SDS011;1659;51.470;6.770;2024-03-23T15:04:37;5.73;;;1.90;;
3293;SDS011;1659;51.470;6.770;2024-03-23T15:07:07;5.50;;;3.90;;
3293;SDS011;1659;51.470;6.770;2024-03-23T15:09:33;5.33;;;2.97;;
3293;SDS011;1659;51.470;6.770;2024-03-23T15:11:59;3.83;;;1.90;;
3293;SDS011;1659;51.470;6.770;2024-03-23T15:14:25;9.20;;;2.57;;
3293;SDS011;1659;51.470;6.770;2024-03-23T15:16:51;2.50;;;2.10;;
3293;SDS011;1659;51.470;6.770;2024-03-23T15:19:18;12.13;;;3.53;;
3293;SDS011;1659;51.470;6.770;2024-03-23T15:21:43;5.70;;;1.90;;
3293;SDS011;1659;51.470;6.770;2024-03-23T15:24:11;4.63;;;2.13;;
3293;SDS011;1659;51.470;6.770;2024-03-23T15:26:37;2.13;;;1.93;;
3293;SDS011;1659;51.470;6.770;2024-03-23T15:29:04;2.73;;;1.87;;
3293;SDS011;1659;51.470;6.770;2024-03-23T15:31:35;1.80;;;1.70;;
3293;SDS011;1659;51.470;6.770;2024-03-23T15:34:02;2.80;;;2.50;;
3293;SDS011;1659;51.470;6.770;2024-03-23T15:36:29;3.33;;;2.10;;
3293;SDS011;1659;51.470;6.770;2024-03-23T15:38:56;4.80;;;3.00;;
3293;SDS011;1659;51.470;6.770;2024-03-23T15:41:23;3.90;;;2.10;;
3293;SDS011;1659;51.470;6.770;2024-03-23T15:43:49;5.37;;;2.40;;
3293;SDS011;1659;51.470;6.770;2024-03-23T15:46:15;5.40;;;2.47;;
3293;SDS011;1659;51.470;6.770;2024-03-23T15:48:44;5.67;;;1.90;;
3293;SDS011;1659;51.470;6.770;2024-03-23T15:51:11;5.60;;;2.07;;
3293;SDS011;1659;51.470;6.770;2024-03-23T15:53:38;2.27;;;1.60;;
3293;SDS011;1659;51.470;6.770;2024-03-23T15:56:04;4.50;;;2.47;;
3293;SDS011;1659;51.470;6.770;2024-03-23T15:58:32;4.63;;;1.90;;
3293;SDS011;1659;51.470;6.770;2024-03-23T16:01:00;3.20;;;2.10;;
3293;SDS011;1659;51.470;6.770;2024-03-23T16:03:27;10.40;;;2.90;;
3293;SDS011;1659;51.470;6.770;2024-03-23T16:05:53;4.90;;;3.93;;
3293;SDS011;1659;51.470;6.770;2024-03-23T16:08:21;6.90;;;3.63;;